Time;durP1;ratioP1;P1;durP2;ratioP2;P2;SDS_P1;SDS_P2;PMS_P1;PMS_P2;Temp;Humidity;BMP_temperature;BMP_pressure;BME280_temperature;BME280_humidity;BME280_pressure;Samples;Min_cycle;Max_cycle;Signal;HPM_P1;HPM_P2
2023/11/28 00:02:07;;;;;;;;;;;21.20;35.80;;;;;;4973265;28;20000;-53
2023/11/28 00:04:34;;;;;;;;;;;21.20;35.80;;;;;;4957282;28;19984;-54
2023/11/28 00:07:02;;;;;;;;;;;21.20;35.70;;;;;;4974178;28;19926;-55
2023/11/28 00:09:29;;;;;;;;;;;21.20;35.70;;;;;;4974319;28;20387;-56
2023/11/28 00:11:56;;;;;;;;;;;21.30;35.70;;;;;;4974398;28;19930;-56
2023/11/28 00:14:23;;;;;;;;;;;21.20;35.70;;;;;;4974336;28;20360;-56
2023/11/28 00:16:50;;;;;;;;;;;21.30;35.70;;;;;;4974250;28;20415;-56
2023/11/28 00:19:17;;;;;;;;;;;21.20;35.60;;;;;;4974508;28;20331;-54
2023/11/28 00:21:45;;;;;;;;;;;21.20;35.60;;;;;;4974480;28;20344;-55
2023/11/28 00:24:15;;;;;;;;;;;21.20;35.60;;;;;;4974823;28;19933;-50
2023/11/28 00:26:42;;;;;;;;;;;21.20;35.60;;;;;;4974239;28;20016;-54
2023/11/28 00:29:09;;;;;;;;;;;21.20;35.60;;;;;;4976072;28;19977;-54
2023/11/28 00:31:36;;;;;;;;;;;21.20;35.60;;;;;;4991578;28;19926;-55
2023/11/28 00:34:03;;;;;;;;;;;21.20;35.60;;;;;;4974073;28;19926;-53
2023/11/28 00:36:30;;;;;;;;;;;21.20;35.60;;;;;;4986241;28;20027;-52
2023/11/28 00:38:57;;;;;;;;;;;21.20;35.60;;;;;;4974467;28;20030;-55
2023/11/28 00:41:25;;;;;;;;;;;21.20;36.20;;;;;;4982494;28;20040;-52
2023/11/28 00:43:54;;;;;;;;;;;21.20;36.20;;;;;;4974356;28;19932;-54
2023/11/28 00:46:22;;;;;;;;;;;21.20;35.60;;;;;;4974227;28;20303;-54
2023/11/28 00:48:49;;;;;;;;;;;21.20;35.60;;;;;;4973990;28;20307;-54
2023/11/28 00:51:17;;;;;;;;;;;21.20;35.60;;;;;;4973827;28;19954;-56
2023/11/28 00:53:44;;;;;;;;;;;21.20;35.60;;;;;;4986424;28;20379;-55
2023/11/28 00:56:20;;;;;;;;;;;21.20;35.60;;;;;;4989419;28;19936;-56
2023/11/28 00:58:48;;;;;;;;;;;21.20;35.60;;;;;;4977816;28;19972;-54
2023/11/28 01:01:17;;;;;;;;;;;21.20;35.60;;;;;;4976903;28;19961;-55
2023/11/28 01:03:45;;;;;;;;;;;21.20;35.60;;;;;;4977721;28;19937;-52
2023/11/28 01:06:12;;;;;;;;;;;21.20;35.60;;;;;;4976294;28;19977;-54
2023/11/28 01:08:39;;;;;;;;;;;21.20;35.60;;;;;;4977662;28;19980;-55
2023/11/28 01:11:06;;;;;;;;;;;21.20;35.60;;;;;;4977443;28;20426;-53
2023/11/28 01:13:33;;;;;;;;;;;21.20;35.60;;;;;;4977576;28;20380;-54
2023/11/28 01:16:01;;;;;;;;;;;21.20;35.60;;;;;;4977234;28;19925;-53
2023/11/28 01:18:28;;;;;;;;;;;21.20;35.60;;;;;;4977103;28;19926;-54
2023/11/28 01:20:55;;;;;;;;;;;21.20;35.60;;;;;;4977721;28;19977;-55
2023/11/28 01:23:22;;;;;;;;;;;21.20;35.70;;;;;;4977018;28;19926;-55
2023/11/28 01:25:49;;;;;;;;;;;21.20;35.70;;;;;;4976412;28;19981;-55
2023/11/28 01:28:16;;;;;;;;;;;21.10;35.70;;;;;;4976360;28;20403;-55
2023/11/28 01:30:43;;;;;;;;;;;21.10;35.70;;;;;;4977013;28;20021;-55
2023/11/28 01:33:11;;;;;;;;;;;21.10;35.70;;;;;;4976128;28;19930;-52
2023/11/28 01:35:39;;;;;;;;;;;21.10;35.70;;;;;;4977107;28;19930;-56
2023/11/28 01:38:06;;;;;;;;;;;21.10;35.80;;;;;;4978079;28;19977;-54
2023/11/28 01:40:33;;;;;;;;;;;21.10;35.80;;;;;;4977024;28;19977;-54
2023/11/28 01:43:00;;;;;;;;;;;21.10;35.80;;;;;;4977099;28;19981;-53
2023/11/28 01:45:27;;;;;;;;;;;21.10;35.70;;;;;;4977031;28;19965;-55
2023/11/28 01:47:56;;;;;;;;;;;21.10;35.70;;;;;;4977004;28;19984;-55
2023/11/28 01:50:23;;;;;;;;;;;21.20;35.70;;;;;;4976858;28;20395;-55
2023/11/28 01:52:51;;;;;;;;;;;21.20;35.60;;;;;;4976588;28;19926;-48
2023/11/28 01:55:18;;;;;;;;;;;21.10;35.60;;;;;;4977000;28;19930;-55
2023/11/28 01:57:45;;;;;;;;;;;21.20;35.60;;;;;;4976793;28;19930;-54
2023/11/28 02:00:12;;;;;;;;;;;21.20;35.60;;;;;;4976620;28;20340;-55
2023/11/28 02:02:40;;;;;;;;;;;21.20;35.60;;;;;;4976775;28;19926;-54
2023/11/28 02:05:07;;;;;;;;;;;21.20;35.60;;;;;;4976585;28;19934;-57
2023/11/28 02:07:34;;;;;;;;;;;21.20;35.60;;;;;;4975963;28;19926;-55
2023/11/28 02:10:02;;;;;;;;;;;21.20;35.60;;;;;;4976308;28;19926;-55
2023/11/28 02:12:29;;;;;;;;;;;21.20;35.60;;;;;;4975661;28;20454;-56
2023/11/28 02:14:56;;;;;;;;;;;21.10;35.50;;;;;;4976417;28;19926;-56
2023/11/28 02:17:23;;;;;;;;;;;21.10;35.50;;;;;;4976421;28;20347;-56
2023/11/28 02:19:52;;;;;;;;;;;21.20;35.60;;;;;;4976151;28;19976;-54
2023/11/28 02:22:19;;;;;;;;;;;21.20;35.60;;;;;;4975940;28;19930;-55
2023/11/28 02:24:49;;;;;;;;;;;21.20;35.60;;;;;;4958983;28;19988;-54
2023/11/28 02:27:16;;;;;;;;;;;21.10;35.50;;;;;;4976295;28;19926;-54
2023/11/28 02:29:46;;;;;;;;;;;21.20;35.60;;;;;;4981860;28;19948;-53
2023/11/28 02:32:13;;;;;;;;;;;21.10;35.60;;;;;;4994803;28;20371;-53
2023/11/28 02:34:40;;;;;;;;;;;21.10;35.50;;;;;;4976243;28;19957;-55
2023/11/28 02:37:08;;;;;;;;;;;21.10;35.50;;;;;;4975954;28;19980;-55
2023/11/28 02:39:35;;;;;;;;;;;21.10;35.50;;;;;;4974531;28;20025;-55
2023/11/28 02:42:03;;;;;;;;;;;21.10;35.60;;;;;;4975429;28;19926;-53
2023/11/28 02:44:30;;;;;;;;;;;21.10;35.50;;;;;;4976096;28;19930;-55
2023/11/28 02:46:56;;;;;;;;;;;21.10;35.50;;;;;;4974491;28;20422;-59
2023/11/28 02:49:23;;;;;;;;;;;21.10;35.60;;;;;;4975903;28;19930;-56
2023/11/28 02:51:50;;;;;;;;;;;21.10;35.60;;;;;;4975823;28;20008;-53
2023/11/28 02:54:17;;;;;;;;;;;21.10;35.60;;;;;;4975780;28;20001;-55
2023/11/28 02:56:46;;;;;;;;;;;21.10;35.60;;;;;;4975619;28;19926;-57
2023/11/28 02:59:13;;;;;;;;;;;21.10;35.60;;;;;;4975368;28;19969;-57
2023/11/28 03:01:40;;;;;;;;;;;21.10;35.60;;;;;;4975280;28;19981;-61
2023/11/28 03:04:07;;;;;;;;;;;21.10;35.60;;;;;;4975365;28;19973;-55
2023/11/28 03:06:34;;;;;;;;;;;21.10;35.70;;;;;;4975272;28;19973;-56
2023/11/28 03:09:02;;;;;;;;;;;21.10;35.70;;;;;;4975218;28;19926;-54
2023/11/28 03:11:29;;;;;;;;;;;21.10;35.70;;;;;;4974406;28;19933;-54
2023/11/28 03:13:56;;;;;;;;;;;21.10;35.70;;;;;;4975262;28;20283;-60
2023/11/28 03:16:23;;;;;;;;;;;21.10;35.70;;;;;;4974937;28;19933;-56
2023/11/28 03:18:50;;;;;;;;;;;21.00;35.70;;;;;;4975027;28;19937;-56
2023/11/28 03:21:17;;;;;;;;;;;21.00;35.70;;;;;;4974993;28;20347;-57
2023/11/28 03:23:44;;;;;;;;;;;21.00;35.70;;;;;;4975217;28;20368;-56
2023/11/28 03:26:11;;;;;;;;;;;21.10;35.70;;;;;;4962746;28;19952;-57
2023/11/28 03:28:38;;;;;;;;;;;21.10;35.70;;;;;;4963024;28;19927;-55
2023/11/28 03:31:05;;;;;;;;;;;21.10;35.70;;;;;;4968932;28;20029;-55
2023/11/28 03:33:33;;;;;;;;;;;21.10;35.70;;;;;;4970618;28;19953;-57
2023/11/28 03:36:00;;;;;;;;;;;21.10;35.60;;;;;;4974569;28;20447;-59
2023/11/28 03:38:27;;;;;;;;;;;21.10;35.60;;;;;;4974064;28;19977;-51
2023/11/28 03:40:54;;;;;;;;;;;21.10;35.60;;;;;;4974305;28;20013;-55
2023/11/28 03:43:21;;;;;;;;;;;21.10;35.60;;;;;;4974646;28;19948;-48
2023/11/28 03:45:48;;;;;;;;;;;21.10;35.60;;;;;;4974636;28;19981;-50
2023/11/28 03:48:15;;;;;;;;;;;21.10;35.60;;;;;;4974251;28;19926;-49
2023/11/28 03:50:42;;;;;;;;;;;21.10;35.60;;;;;;4973990;28;19984;-49
2023/11/28 03:53:10;;;;;;;;;;;21.10;35.60;;;;;;4974257;28;20013;-51
2023/11/28 03:55:37;;;;;;;;;;;21.10;35.60;;;;;;4974658;28;19926;-50
2023/11/28 03:58:04;;;;;;;;;;;21.10;35.60;;;;;;4974436;28;19926;-48
2023/11/28 04:00:31;;;;;;;;;;;21.10;35.60;;;;;;4974692;28;20287;-49
2023/11/28 04:02:57;;;;;;;;;;;21.10;35.60;;;;;;4973956;28;20296;-52
2023/11/28 04:05:25;;;;;;;;;;;21.10;35.60;;;;;;4974660;28;19932;-53
2023/11/28 04:07:52;;;;;;;;;;;21.00;35.60;;;;;;4967642;28;19927;-49
2023/11/28 04:10:19;;;;;;;;;;;21.10;35.60;;;;;;4974229;28;19930;-49
2023/11/28 04:12:46;;;;;;;;;;;21.00;35.50;;;;;;4974454;28;19976;-50
2023/11/28 04:15:13;;;;;;;;;;;21.00;35.60;;;;;;4956991;28;20432;-55
2023/11/28 04:17:40;;;;;;;;;;;21.00;35.60;;;;;;4974039;28;19961;-54
2023/11/28 04:20:07;;;;;;;;;;;21.10;35.60;;;;;;4974314;28;19933;-54
2023/11/28 04:22:34;;;;;;;;;;;21.00;35.60;;;;;;4974268;28;19933;-54
2023/11/28 04:25:02;;;;;;;;;;;21.00;35.60;;;;;;4973933;28;19926;-54
2023/11/28 04:27:29;;;;;;;;;;;21.00;35.60;;;;;;4957556;28;19926;-53
2023/11/28 04:29:56;;;;;;;;;;;21.00;35.60;;;;;;4983909;28;19962;-54
2023/11/28 04:32:23;;;;;;;;;;;21.00;35.60;;;;;;4987893;28;20024;-53
2023/11/28 04:34:50;;;;;;;;;;;21.00;35.60;;;;;;4977941;28;19981;-52
2023/11/28 04:37:17;;;;;;;;;;;21.00;35.60;;;;;;4977924;28;20426;-56
2023/11/28 04:39:45;;;;;;;;;;;21.00;35.50;;;;;;4977832;28;20395;-56
2023/11/28 04:42:12;;;;;;;;;;;21.10;35.50;;;;;;4977920;28;19977;-51
2023/11/28 04:44:40;;;;;;;;;;;21.10;35.30;;;;;;4977257;28;20334;-55
2023/11/28 04:47:07;;;;;;;;;;;21.10;35.30;;;;;;4978167;28;19980;-49
2023/11/28 04:49:34;;;;;;;;;;;21.10;35.20;;;;;;4977866;28;19933;-54
2023/11/28 04:52:01;;;;;;;;;;;21.10;35.20;;;;;;4977641;28;19937;-48
2023/11/28 04:54:28;;;;;;;;;;;21.10;35.70;;;;;;4977969;28;20339;-53
2023/11/28 04:56:55;;;;;;;;;;;21.10;35.10;;;;;;4977496;28;19926;-51
2023/11/28 04:59:22;;;;;;;;;;;21.10;35.20;;;;;;4977497;28;20110;-47
2023/11/28 05:01:49;;;;;;;;;;;21.10;35.20;;;;;;4977733;28;19969;-51
2023/11/28 05:04:16;;;;;;;;;;;21.10;35.20;;;;;;4977290;28;19926;-50
2023/11/28 05:06:43;;;;;;;;;;;21.10;35.30;;;;;;4976276;28;19973;-48
2023/11/28 05:09:11;;;;;;;;;;;21.10;35.30;;;;;;4974986;28;19984;-52
2023/11/28 05:11:38;;;;;;;;;;;21.10;35.30;;;;;;4977239;28;19926;-51
2023/11/28 05:14:05;;;;;;;;;;;21.10;35.30;;;;;;4976924;28;19984;-51
2023/11/28 05:16:32;;;;;;;;;;;21.10;35.30;;;;;;4975458;28;19926;-48
2023/11/28 05:19:15;;;;;;;;;;;21.10;35.30;;;;;;4967776;28;20022;-53
2023/11/28 05:21:42;;;;;;;;;;;21.10;35.30;;;;;;4969891;28;19926;-49
2023/11/28 05:24:09;;;;;;;;;;;21.10;35.30;;;;;;4977244;28;20020;-48
2023/11/28 05:26:36;;;;;;;;;;;21.10;35.30;;;;;;4989356;28;20028;-51
2023/11/28 05:29:03;;;;;;;;;;;21.10;35.30;;;;;;4977205;28;19926;-51
2023/11/28 05:31:30;;;;;;;;;;;21.10;35.30;;;;;;4984138;28;19933;-48
2023/11/28 05:33:57;;;;;;;;;;;21.10;35.30;;;;;;4990008;28;19930;-52
2023/11/28 05:36:24;;;;;;;;;;;21.20;35.30;;;;;;4968046;28;19933;-50
2023/11/28 05:38:51;;;;;;;;;;;21.10;35.30;;;;;;4969821;28;19930;-49
2023/11/28 05:41:18;;;;;;;;;;;21.20;35.40;;;;;;4958160;28;20017;-49
2023/11/28 05:43:45;;;;;;;;;;;21.20;35.40;;;;;;4980453;28;20021;-50
2023/11/28 05:46:12;;;;;;;;;;;21.20;35.40;;;;;;4976504;28;19946;-48
2023/11/28 05:48:39;;;;;;;;;;;21.20;35.40;;;;;;4976564;28;19962;-53
2023/11/28 05:51:08;;;;;;;;;;;21.10;35.30;;;;;;4976552;28;19926;-52
2023/11/28 05:53:40;;;;;;;;;;;21.20;35.40;;;;;;4975118;28;20374;-50
2023/11/28 05:56:09;;;;;;;;;;;21.10;35.30;;;;;;4976596;28;20009;-49
2023/11/28 05:58:36;;;;;;;;;;;21.20;35.40;;;;;;4975464;28;19969;-47
2023/11/28 06:01:03;;;;;;;;;;;21.20;35.40;;;;;;4975750;28;19926;-50
2023/11/28 06:03:30;;;;;;;;;;;21.20;35.40;;;;;;4975751;28;20340;-48
2023/11/28 06:05:58;;;;;;;;;;;21.10;35.40;;;;;;4975212;28;19937;-52
2023/11/28 06:08:25;;;;;;;;;;;21.20;35.50;;;;;;4974441;28;19958;-50
2023/11/28 06:10:52;;;;;;;;;;;21.20;35.50;;;;;;4969434;28;20013;-49
2023/11/28 06:13:19;;;;;;;;;;;21.20;35.50;;;;;;4975770;28;19930;-55
2023/11/28 06:15:46;;;;;;;;;;;21.20;35.50;;;;;;4976613;28;19935;-55
2023/11/28 06:18:13;;;;;;;;;;;21.20;35.70;;;;;;4980868;28;20012;-56
2023/11/28 06:20:40;;;;;;;;;;;21.20;36.00;;;;;;4969995;28;20002;-56
2023/11/28 06:23:07;;;;;;;;;;;21.30;36.50;;;;;;4974308;28;19929;-54
2023/11/28 06:25:34;;;;;;;;;;;21.30;36.90;;;;;;4975801;28;20415;-53
2023/11/28 06:28:01;;;;;;;;;;;21.30;37.20;;;;;;4973034;28;20012;-55
2023/11/28 06:30:28;;;;;;;;;;;21.40;37.60;;;;;;4974067;28;19932;-55
2023/11/28 06:32:55;;;;;;;;;;;21.40;37.70;;;;;;4972304;28;19941;-56
2023/11/28 06:35:23;;;;;;;;;;;21.50;38.00;;;;;;4974353;28;19961;-55
2023/11/28 06:37:50;;;;;;;;;;;21.50;38.00;;;;;;4951492;28;19950;-52
2023/11/28 06:40:18;;;;;;;;;;;21.50;38.10;;;;;;4965923;28;19931;-50
2023/11/28 06:42:45;;;;;;;;;;;21.60;38.20;;;;;;4964998;28;20372;-50
2023/11/28 06:45:12;;;;;;;;;;;21.60;38.10;;;;;;4967149;28;19938;-48
2023/11/28 06:47:39;;;;;;;;;;;21.60;38.20;;;;;;4968007;28;20418;-52
2023/11/28 06:50:06;;;;;;;;;;;21.70;38.10;;;;;;4966413;28;19926;-51
2023/11/28 06:52:36;;;;;;;;;;;21.70;37.80;;;;;;4963231;28;19953;-51
2023/11/28 06:55:05;;;;;;;;;;;21.70;37.40;;;;;;4968352;28;20020;-55
2023/11/28 06:57:33;;;;;;;;;;;21.70;37.10;;;;;;4969317;28;19934;-56
2023/11/28 07:00:00;;;;;;;;;;;21.70;37.10;;;;;;4966985;28;20403;-50
2023/11/28 07:02:28;;;;;;;;;;;21.70;37.20;;;;;;4967374;28;19926;-49
2023/11/28 07:04:55;;;;;;;;;;;21.70;37.30;;;;;;4965513;28;19945;-51
2023/11/28 07:07:22;;;;;;;;;;;21.80;37.30;;;;;;4967487;28;20503;-50
2023/11/28 07:09:49;;;;;;;;;;;21.80;37.60;;;;;;4972509;28;20273;-49
2023/11/28 07:12:16;;;;;;;;;;;21.80;37.80;;;;;;4964166;28;20001;-48
2023/11/28 07:14:43;;;;;;;;;;;21.80;38.00;;;;;;4970031;28;20426;-49
2023/11/28 07:17:10;;;;;;;;;;;21.80;38.10;;;;;;4967211;28;20491;-48
2023/11/28 07:19:37;;;;;;;;;;;21.90;38.30;;;;;;4968748;28;19933;-50
2023/11/28 07:22:04;;;;;;;;;;;21.90;38.40;;;;;;4968259;28;19977;-49
2023/11/28 07:24:31;;;;;;;;;;;22.00;38.50;;;;;;4967299;28;19933;-49
2023/11/28 07:26:59;;;;;;;;;;;22.00;38.50;;;;;;4969777;28;19970;-52
2023/11/28 07:29:26;;;;;;;;;;;22.00;38.50;;;;;;4970086;28;19930;-49
2023/11/28 07:31:53;;;;;;;;;;;22.10;38.50;;;;;;4965580;28;20281;-53
2023/11/28 07:34:20;;;;;;;;;;;22.10;38.40;;;;;;4966047;28;20378;-51
2023/11/28 07:36:49;;;;;;;;;;;22.10;38.70;;;;;;4972307;28;19965;-51
2023/11/28 07:39:17;;;;;;;;;;;22.10;38.70;;;;;;4973121;28;20458;-51
2023/11/28 07:41:44;;;;;;;;;;;22.10;38.70;;;;;;4953910;28;19934;-50
2023/11/28 07:44:11;;;;;;;;;;;22.20;38.70;;;;;;4969289;28;19973;-49
2023/11/28 07:46:38;;;;;;;;;;;22.20;38.70;;;;;;4973915;28;20585;-48
2023/11/28 07:49:05;;;;;;;;;;;22.10;38.40;;;;;;4968527;28;19933;-49
2023/11/28 07:51:33;;;;;;;;;;;22.20;38.50;;;;;;4967047;28;20555;-52
2023/11/28 07:54:00;;;;;;;;;;;22.20;38.60;;;;;;4969748;28;20009;-54
2023/11/28 07:56:27;;;;;;;;;;;22.20;38.70;;;;;;4970645;28;19937;-50
2023/11/28 07:58:55;;;;;;;;;;;22.30;38.80;;;;;;4953270;28;20033;-51
2023/11/28 08:01:22;;;;;;;;;;;22.30;39.00;;;;;;4965570;28;19925;-52
2023/11/28 08:03:49;;;;;;;;;;;22.30;38.70;;;;;;4972528;28;20075;-49
2023/11/28 08:06:18;;;;;;;;;;;22.30;38.50;;;;;;4949982;28;19957;-51
2023/11/28 08:08:46;;;;;;;;;;;22.30;38.20;;;;;;4962190;28;20017;-48
2023/11/28 08:11:14;;;;;;;;;;;22.30;38.00;;;;;;4966758;28;19934;-50
2023/11/28 08:13:41;;;;;;;;;;;22.20;37.80;;;;;;4969759;28;20379;-54
2023/11/28 08:16:08;;;;;;;;;;;22.20;37.80;;;;;;4966556;28;19930;-54
2023/11/28 08:18:35;;;;;;;;;;;22.20;37.70;;;;;;4972398;28;19934;-56
2023/11/28 08:21:08;;;;;;;;;;;22.20;37.80;;;;;;4964138;28;19934;-51
2023/11/28 08:23:35;;;;;;;;;;;22.20;37.90;;;;;;4961942;28;20383;-54
2023/11/28 08:26:02;;;;;;;;;;;22.10;38.00;;;;;;4969517;28;19945;-51
2023/11/28 08:28:29;;;;;;;;;;;22.10;38.00;;;;;;4967050;28;20455;-54
2023/11/28 08:30:56;;;;;;;;;;;22.10;38.10;;;;;;4966959;28;19933;-56
2023/11/28 08:33:24;;;;;;;;;;;22.10;38.10;;;;;;4971628;28;19929;-54
2023/11/28 08:35:51;;;;;;;;;;;22.10;38.10;;;;;;4966636;28;20005;-55
2023/11/28 08:38:18;;;;;;;;;;;22.10;38.10;;;;;;4965334;28;19938;-54
2023/11/28 08:40:46;;;;;;;;;;;22.10;38.10;;;;;;4963949;28;19937;-56
2023/11/28 08:43:13;;;;;;;;;;;22.10;38.10;;;;;;4968921;28;19930;-56
2023/11/28 08:45:40;;;;;;;;;;;22.10;38.00;;;;;;4971024;28;19985;-54
2023/11/28 08:48:09;;;;;;;;;;;22.10;38.60;;;;;;4965659;28;20473;-55
2023/11/28 08:50:37;;;;;;;;;;;22.10;38.00;;;;;;4967577;28;20060;-51
2023/11/28 08:53:04;;;;;;;;;;;22.10;38.20;;;;;;4966268;28;20037;-54
2023/11/28 08:55:31;;;;;;;;;;;22.10;38.50;;;;;;4962006;28;19932;-54
2023/11/28 08:57:58;;;;;;;;;;;22.10;38.80;;;;;;4965373;28;19934;-53
2023/11/28 09:00:25;;;;;;;;;;;22.20;39.00;;;;;;4964638;28;19933;-51
2023/11/28 09:02:52;;;;;;;;;;;22.20;39.10;;;;;;4964846;28;19945;-54
2023/11/28 09:05:20;;;;;;;;;;;22.20;39.10;;;;;;4960957;28;19937;-54
2023/11/28 09:07:49;;;;;;;;;;;22.30;39.20;;;;;;4966010;28;19957;-54
2023/11/28 09:10:16;;;;;;;;;;;22.30;39.30;;;;;;4963993;28;20028;-54
2023/11/28 09:12:47;;;;;;;;;;;22.30;39.30;;;;;;4966436;28;19997;-56
2023/11/28 09:15:15;;;;;;;;;;;22.40;39.30;;;;;;4965235;28;19926;-59
2023/11/28 09:17:42;;;;;;;;;;;22.40;39.20;;;;;;4971762;28;20355;-55
2023/11/28 09:20:09;;;;;;;;;;;22.40;39.30;;;;;;4966848;28;20064;-53
2023/11/28 09:22:36;;;;;;;;;;;22.50;39.40;;;;;;4965860;28;20447;-55
2023/11/28 09:25:04;;;;;;;;;;;22.50;39.60;;;;;;4970220;28;20403;-53
2023/11/28 09:27:31;;;;;;;;;;;22.50;39.70;;;;;;4966440;28;20372;-50
2023/11/28 09:29:58;;;;;;;;;;;22.60;39.70;;;;;;4974067;28;19933;-54
2023/11/28 09:32:26;;;;;;;;;;;22.60;39.90;;;;;;4966101;28;19941;-53
2023/11/28 09:34:53;;;;;;;;;;;22.70;40.10;;;;;;4965947;28;19984;-55
2023/11/28 09:37:21;;;;;;;;;;;22.70;40.00;;;;;;4964888;28;19934;-53
2023/11/28 09:39:48;;;;;;;;;;;22.70;39.90;;;;;;4971479;28;19938;-55
2023/11/28 09:42:15;;;;;;;;;;;22.70;39.80;;;;;;4965291;28;19937;-51
2023/11/28 09:44:43;;;;;;;;;;;22.80;39.80;;;;;;4973665;28;19934;-49
2023/11/28 09:47:10;;;;;;;;;;;22.80;39.60;;;;;;4971035;28;19949;-51
2023/11/28 09:49:40;;;;;;;;;;;22.80;39.60;;;;;;4971212;28;20375;-52
2023/11/28 09:52:08;;;;;;;;;;;22.80;39.60;;;;;;4964923;28;20384;-51
2023/11/28 09:54:37;;;;;;;;;;;22.80;39.50;;;;;;4972909;28;20800;-53
2023/11/28 09:57:05;;;;;;;;;;;22.80;39.50;;;;;;4973538;28;20280;-54
2023/11/28 09:59:34;;;;;;;;;;;22.80;39.50;;;;;;4950324;28;20009;-52
2023/11/28 10:02:01;;;;;;;;;;;22.90;39.60;;;;;;4970385;28;19945;-52
2023/11/28 10:04:29;;;;;;;;;;;23.00;39.60;;;;;;4969861;28;19934;-50
2023/11/28 10:06:58;;;;;;;;;;;23.00;39.60;;;;;;4968656;28;20434;-51
2023/11/28 10:09:25;;;;;;;;;;;23.00;39.70;;;;;;4970072;28;20009;-53
2023/11/28 10:11:54;;;;;;;;;;;23.00;39.60;;;;;;4970938;28;20276;-56
2023/11/28 10:14:21;;;;;;;;;;;23.00;39.60;;;;;;4970295;28;19969;-54
2023/11/28 10:16:49;;;;;;;;;;;23.00;39.50;;;;;;4964289;28;19940;-55
2023/11/28 10:19:17;;;;;;;;;;;23.00;39.30;;;;;;4965309;28;19926;-55
2023/11/28 10:21:44;;;;;;;;;;;23.00;39.10;;;;;;4964772;28;19974;-58
2023/11/28 10:24:12;;;;;;;;;;;23.00;38.80;;;;;;4966949;28;19930;-56
2023/11/28 10:26:39;;;;;;;;;;;23.00;38.80;;;;;;4965768;28;20006;-55
2023/11/28 10:29:07;;;;;;;;;;;23.00;38.80;;;;;;4950038;28;19956;-56
2023/11/28 10:31:38;;;;;;;;;;;23.00;38.90;;;;;;4964828;28;19942;-56
2023/11/28 10:34:08;;;;;;;;;;;23.00;38.90;;;;;;4966983;28;19926;-55
2023/11/28 10:36:38;;;;;;;;;;;23.00;38.90;;;;;;4968416;28;19934;-57
2023/11/28 10:39:05;;;;;;;;;;;23.00;38.90;;;;;;4967254;28;20021;-56
2023/11/28 10:41:33;;;;;;;;;;;23.00;39.00;;;;;;4961082;28;20053;-54
2023/11/28 10:44:00;;;;;;;;;;;23.00;38.90;;;;;;4966687;28;19926;-55
2023/11/28 10:46:27;;;;;;;;;;;22.90;38.90;;;;;;4967395;28;19934;-56
2023/11/28 10:48:55;;;;;;;;;;;22.90;38.80;;;;;;4968636;28;19930;-55
2023/11/28 10:51:23;;;;;;;;;;;23.00;38.90;;;;;;4971595;28;19954;-55
2023/11/28 10:53:53;;;;;;;;;;;23.00;38.90;;;;;;4969028;28;20384;-54
2023/11/28 10:56:20;;;;;;;;;;;23.00;38.80;;;;;;4971098;28;19926;-57
2023/11/28 10:58:47;;;;;;;;;;;23.00;38.70;;;;;;4968354;28;19926;-55
2023/11/28 11:01:15;;;;;;;;;;;22.90;38.70;;;;;;4965879;28;19938;-56
2023/11/28 11:03:44;;;;;;;;;;;23.00;38.90;;;;;;4960051;28;20392;-50
2023/11/28 11:06:11;;;;;;;;;;;23.00;39.40;;;;;;4965638;28;20357;-52
2023/11/28 11:08:40;;;;;;;;;;;23.00;39.70;;;;;;4965661;28;19996;-51
2023/11/28 11:11:08;;;;;;;;;;;23.00;40.10;;;;;;4967462;28;20003;-54
2023/11/28 11:13:41;;;;;;;;;;;23.00;40.60;;;;;;4969964;28;19989;-53
2023/11/28 11:16:15;;;;;;;;;;;23.00;40.60;;;;;;4971131;28;19976;-56
2023/11/28 11:18:45;;;;;;;;;;;23.00;40.70;;;;;;4970678;28;19972;-56
2023/11/28 11:21:18;;;;;;;;;;;23.10;40.90;;;;;;4969541;28;19965;-54
2023/11/28 11:23:50;;;;;;;;;;;23.10;40.90;;;;;;4968856;28;20283;-57
2023/11/28 11:26:17;;;;;;;;;;;23.10;41.10;;;;;;4969498;28;19937;-58
2023/11/28 11:28:44;;;;;;;;;;;23.20;41.30;;;;;;4969917;28;20235;-56
2023/11/28 11:31:14;;;;;;;;;;;23.20;41.40;;;;;;4967232;28;19926;-55
2023/11/28 11:33:41;;;;;;;;;;;23.20;41.50;;;;;;4960857;28;19934;-51
2023/11/28 11:36:12;;;;;;;;;;;23.20;41.50;;;;;;4967894;28;19930;-54
2023/11/28 11:38:39;;;;;;;;;;;23.30;41.70;;;;;;4967340;28;20012;-55
2023/11/28 11:41:09;;;;;;;;;;;23.30;41.50;;;;;;4972225;28;19953;-58
2023/11/28 11:43:38;;;;;;;;;;;23.30;41.50;;;;;;4970065;28;19977;-54
2023/11/28 11:46:06;;;;;;;;;;;23.30;41.30;;;;;;4967384;28;19934;-51
2023/11/28 11:48:34;;;;;;;;;;;23.40;41.50;;;;;;4966475;28;19934;-51
2023/11/28 11:51:01;;;;;;;;;;;23.40;41.50;;;;;;4972314;28;19945;-54
2023/11/28 11:53:30;;;;;;;;;;;23.40;41.50;;;;;;4963780;28;19933;-49
2023/11/28 11:55:58;;;;;;;;;;;23.40;41.40;;;;;;4962981;28;19984;-49
2023/11/28 11:58:26;;;;;;;;;;;23.40;41.30;;;;;;4964485;28;20045;-52
2023/11/28 12:00:53;;;;;;;;;;;23.40;41.30;;;;;;4965595;28;19980;-52
2023/11/28 12:03:20;;;;;;;;;;;23.40;41.20;;;;;;4961655;28;19964;-53
2023/11/28 12:05:57;;;;;;;;;;;23.40;41.70;;;;;;4964964;28;19956;-51
2023/11/28 12:08:26;;;;;;;;;;;23.40;41.50;;;;;;4962134;28;20380;-51
2023/11/28 12:11:04;;;;;;;;;;;23.40;41.40;;;;;;4960034;28;19938;-52
2023/11/28 12:13:31;;;;;;;;;;;23.40;41.50;;;;;;4951942;28;20376;-51
2023/11/28 12:16:02;;;;;;;;;;;23.40;41.40;;;;;;4959184;28;20461;-56
2023/11/28 12:18:30;;;;;;;;;;;23.40;41.40;;;;;;4948193;28;19934;-53
2023/11/28 12:20:58;;;;;;;;;;;23.40;41.40;;;;;;4950271;28;20145;-55
2023/11/28 12:23:26;;;;;;;;;;;23.40;41.30;;;;;;4950074;28;20001;-54
2023/11/28 12:25:54;;;;;;;;;;;23.40;41.20;;;;;;4964058;28;19926;-51
2023/11/28 12:28:21;;;;;;;;;;;23.40;41.20;;;;;;4964778;28;20619;-51
2023/11/28 12:30:49;;;;;;;;;;;23.40;41.20;;;;;;4966317;28;20360;-54
2023/11/28 12:33:16;;;;;;;;;;;23.40;41.20;;;;;;4968650;28;20006;-52
2023/11/28 12:35:49;;;;;;;;;;;23.50;41.30;;;;;;4961203;28;20407;-55
2023/11/28 12:38:17;;;;;;;;;;;23.40;41.00;;;;;;4962930;28;20038;-56
2023/11/28 12:40:45;;;;;;;;;;;23.40;41.20;;;;;;4962779;28;19934;-51
2023/11/28 12:43:20;;;;;;;;;;;23.40;40.40;;;;;;4966649;28;19940;-55
2023/11/28 12:45:51;;;;;;;;;;;23.40;40.30;;;;;;4965598;28;19930;-54
2023/11/28 12:48:18;;;;;;;;;;;23.40;40.30;;;;;;4971060;28;20348;-57
2023/11/28 12:50:45;;;;;;;;;;;23.40;40.30;;;;;;4969217;28;19934;-54
2023/11/28 12:53:17;;;;;;;;;;;23.40;40.40;;;;;;4970705;28;21365;-54
2023/11/28 12:55:45;;;;;;;;;;;23.40;40.40;;;;;;4972576;28;19989;-55
2023/11/28 12:58:12;;;;;;;;;;;23.40;40.40;;;;;;4972075;28;19952;-51
2023/11/28 13:00:39;;;;;;;;;;;23.40;40.40;;;;;;4968450;28;20065;-54
2023/11/28 13:03:06;;;;;;;;;;;23.40;40.30;;;;;;4968237;28;20013;-55
2023/11/28 13:05:34;;;;;;;;;;;23.40;40.30;;;;;;4969824;28;19934;-51
2023/11/28 13:08:01;;;;;;;;;;;23.40;40.40;;;;;;4971263;28;19961;-50
2023/11/28 13:10:28;;;;;;;;;;;23.50;40.60;;;;;;4969250;28;19931;-51
2023/11/28 13:12:55;;;;;;;;;;;23.50;40.50;;;;;;4969185;28;20324;-49
2023/11/28 13:15:37;;;;;;;;;;;23.50;40.40;;;;;;4965814;28;20501;-53
2023/11/28 13:18:04;;;;;;;;;;;23.50;40.30;;;;;;4971030;28;19930;-52
2023/11/28 13:20:31;;;;;;;;;;;23.50;40.40;;;;;;4967444;28;19934;-52
2023/11/28 13:22:59;;;;;;;;;;;23.60;40.50;;;;;;4972852;28;19938;-50
2023/11/28 13:25:30;;;;;;;;;;;23.60;40.40;;;;;;4970810;28;19931;-49
2023/11/28 13:27:57;;;;;;;;;;;23.60;40.30;;;;;;4967359;28;19953;-52
2023/11/28 13:30:25;;;;;;;;;;;23.60;40.30;;;;;;4971928;28;19973;-54
2023/11/28 13:32:55;;;;;;;;;;;23.60;40.20;;;;;;4966286;28;19927;-55
2023/11/28 13:35:22;;;;;;;;;;;23.60;40.10;;;;;;4949050;28;19927;-53
2023/11/28 13:37:49;;;;;;;;;;;23.60;40.20;;;;;;4971867;28;19930;-54
2023/11/28 13:40:16;;;;;;;;;;;23.50;40.10;;;;;;4969818;28;19934;-53
2023/11/28 13:42:44;;;;;;;;;;;23.60;40.30;;;;;;4968469;28;19926;-54
2023/11/28 13:45:11;;;;;;;;;;;23.60;40.40;;;;;;4968825;28;19940;-53
2023/11/28 13:47:38;;;;;;;;;;;23.60;40.40;;;;;;4969659;28;19937;-51
2023/11/28 13:50:09;;;;;;;;;;;23.60;40.40;;;;;;4970216;28;19981;-52
2023/11/28 13:52:37;;;;;;;;;;;23.60;40.30;;;;;;4970049;28;19989;-54
2023/11/28 13:55:04;;;;;;;;;;;23.60;40.30;;;;;;4971565;28;20323;-53
2023/11/28 13:57:31;;;;;;;;;;;23.60;40.30;;;;;;4967653;28;19934;-52
2023/11/28 13:59:59;;;;;;;;;;;23.60;40.10;;;;;;4971850;28;20303;-55
2023/11/28 14:02:27;;;;;;;;;;;23.60;40.10;;;;;;4969550;28;19930;-53
2023/11/28 14:05:10;;;;;;;;;;;23.60;40.10;;;;;;4967112;28;20033;-54
2023/11/28 14:07:37;;;;;;;;;;;23.60;40.00;;;;;;4968229;28;19934;-57
2023/11/28 14:10:05;;;;;;;;;;;23.60;40.10;;;;;;4967762;28;19954;-58
2023/11/28 14:12:33;;;;;;;;;;;23.70;40.20;;;;;;4967841;28;20100;-58
2023/11/28 14:15:00;;;;;;;;;;;23.70;40.30;;;;;;4970916;28;19934;-56
2023/11/28 14:17:27;;;;;;;;;;;23.70;40.20;;;;;;4965682;28;19946;-56
2023/11/28 14:19:54;;;;;;;;;;;23.70;40.00;;;;;;4946119;28;19934;-57